Time;durP1;ratioP1;P1;durP2;ratioP2;P2;SDS_P1;SDS_P2;PMS_P1;PMS_P2;Temp;Humidity;BMP_temperature;BMP_pressure;BME280_temperature;BME280_humidity;BME280_pressure;Samples;Min_cycle;Max_cycle;Signal;HPM_P1;HPM_P2
2023/10/25 00:01:52;;;;;;;9.85;5.65;;;13.50;99.90;;;13.62;90.64;99970.13;4815280;29;20107;-66
2023/10/25 00:04:21;;;;;;;11.73;5.45;;;13.40;99.90;;;13.49;90.75;99968.78;4821827;29;20071;-66
2023/10/25 00:06:51;;;;;;;10.68;5.63;;;13.30;99.90;;;13.44;90.73;99968.91;4812077;29;20047;-65
2023/10/25 00:09:19;;;;;;;8.45;5.38;;;13.20;99.90;;;13.41;90.74;99970.78;4817403;29;20054;-66
2023/10/25 00:11:48;;;;;;;10.35;5.93;;;13.10;99.90;;;13.35;91.25;99971.84;4820402;29;20471;-66
2023/10/25 00:14:16;;;;;;;12.70;5.72;;;13.10;99.90;;;13.28;92.02;99956.09;4811048;29;20496;-66
2023/10/25 00:16:44;;;;;;;9.70;4.80;;;13.10;99.90;;;13.30;92.29;99968.44;4818774;29;20055;-66
2023/10/25 00:19:13;;;;;;;8.73;4.80;;;13.00;99.90;;;13.30;92.76;99957.81;4818278;29;20050;-66
2023/10/25 00:21:41;;;;;;;10.20;5.72;;;13.00;99.90;;;13.34;93.02;99958.59;4811115;29;20133;-66
2023/10/25 00:24:11;;;;;;;10.52;5.50;;;13.00;99.90;;;13.36;93.36;99965.59;4816357;29;20061;-66
2023/10/25 00:26:39;;;;;;;11.32;5.95;;;13.00;99.90;;;13.34;93.28;99956.81;4798501;29;20080;-65
2023/10/25 00:29:07;;;;;;;9.20;5.47;;;13.00;99.90;;;13.34;93.30;99956.81;4792951;29;20400;-65
2023/10/25 00:31:36;;;;;;;11.30;5.47;;;13.00;99.90;;;13.32;93.42;99958.63;4803439;29;20066;-66
2023/10/25 00:34:04;;;;;;;9.15;5.50;;;13.00;99.90;;;13.29;93.52;99960.53;4796708;29;20058;-66
2023/10/25 00:36:33;;;;;;;10.50;5.82;;;13.00;99.90;;;13.24;93.90;99962.47;4809723;29;20077;-66
2023/10/25 00:39:03;;;;;;;11.65;6.47;;;12.90;99.90;;;13.21;94.24;99952.78;4803240;29;20520;-66
2023/10/25 00:41:32;;;;;;;12.95;5.88;;;12.90;99.90;;;13.24;94.40;99958.00;4808721;29;20204;-65
2023/10/25 00:44:01;;;;;;;10.40;6.05;;;12.90;99.90;;;13.22;94.28;99954.50;4797272;29;20391;-65
2023/10/25 00:46:30;;;;;;;10.95;6.10;;;12.90;99.90;;;13.23;94.72;99956.28;4803290;29;20126;-65
2023/10/25 00:49:01;;;;;;;15.60;6.47;;;12.90;99.90;;;13.20;94.66;99950.19;4799988;29;20054;-66
2023/10/25 00:51:31;;;;;;;11.63;7.25;;;12.90;99.90;;;13.17;94.85;99950.25;4805621;29;20481;-65
2023/10/25 00:54:04;;;;;;;11.13;6.50;;;12.90;99.90;;;13.15;95.47;99942.34;4810023;29;20094;-66
2023/10/25 00:56:34;;;;;;;14.65;6.90;;;12.90;99.90;;;13.14;95.75;99943.25;4805033;29;20063;-66
2023/10/25 00:59:03;;;;;;;10.55;6.30;;;12.80;99.90;;;13.13;95.89;99946.84;4807156;29;20055;-66
2023/10/25 01:01:33;;;;;;;12.35;7.38;;;12.90;99.90;;;13.14;95.95;99943.25;4811599;29;20732;-70
2023/10/25 01:04:02;;;;;;;10.68;6.68;;;12.80;99.90;;;13.14;96.20;99945.91;4805643;29;20055;-67
2023/10/25 01:06:31;;;;;;;11.70;7.47;;;12.80;99.90;;;13.15;96.18;99936.16;4806807;29;20577;-67
2023/10/25 01:08:59;;;;;;;14.52;7.68;;;12.80;99.90;;;13.12;96.17;99939.78;4806561;29;20047;-67
2023/10/25 01:11:28;;;;;;;12.18;7.30;;;12.80;99.90;;;13.13;96.52;99937.97;4806527;29;20053;-67
2023/10/25 01:13:58;;;;;;;11.10;7.10;;;12.80;99.90;;;13.12;96.20;99930.94;4806472;29;20055;-67
2023/10/25 01:16:26;;;;;;;12.77;7.25;;;12.80;99.90;;;13.07;96.62;99923.13;4806530;29;20054;-67
2023/10/25 01:18:57;;;;;;;12.82;7.03;;;12.80;99.90;;;13.10;96.24;99920.38;4805189;29;20077;-66
2023/10/25 01:21:27;;;;;;;15.30;7.00;;;12.80;99.90;;;13.03;96.62;99921.47;4805043;29;20125;-66
2023/10/25 01:23:56;;;;;;;15.35;7.43;;;12.80;99.90;;;13.02;96.80;99917.06;4804679;29;20462;-66
2023/10/25 01:26:25;;;;;;;14.38;7.28;;;12.70;99.90;;;13.04;96.62;99917.91;4806610;29;20086;-66
2023/10/25 01:28:54;;;;;;;13.70;7.78;;;12.70;99.90;;;13.02;96.30;99914.41;4806398;29;20050;-66
2023/10/25 01:31:22;;;;;;;15.63;7.25;;;12.70;99.90;;;13.05;96.39;99914.31;4805959;29;20058;-66
2023/10/25 01:33:53;;;;;;;13.95;7.40;;;12.70;99.90;;;13.08;96.33;99914.25;4806209;29;20480;-67
2023/10/25 01:36:22;;;;;;;13.55;7.50;;;12.80;99.90;;;13.11;96.07;99911.50;4806578;29;20062;-67
2023/10/25 01:38:51;;;;;;;11.10;7.50;;;12.80;99.90;;;13.10;96.36;99908.88;4804761;29;20046;-66
2023/10/25 01:41:22;;;;;;;13.27;7.15;;;12.80;99.90;;;13.12;96.13;99902.63;4817071;29;20067;-67
2023/10/25 01:43:50;;;;;;;12.10;7.83;;;12.80;99.90;;;13.08;96.07;99893.00;4800839;29;20059;-66
2023/10/25 01:46:18;;;;;;;14.82;7.32;;;12.90;99.90;;;13.06;96.09;99888.66;4805888;29;20047;-67
2023/10/25 01:48:47;;;;;;;15.07;7.65;;;12.80;99.90;;;12.92;96.19;99869.56;4805597;29;20134;-66
2023/10/25 01:51:15;;;;;;;13.13;7.40;;;12.80;99.90;;;13.10;96.45;99880.56;4811950;29;20047;-66
2023/10/25 01:53:44;;;;;;;16.92;7.53;;;12.80;99.90;;;13.14;96.22;99889.28;4806069;29;20370;-66
2023/10/25 01:56:12;;;;;;;12.05;7.60;;;12.80;99.90;;;13.12;96.00;99886.69;4805813;29;20070;-66
2023/10/25 01:58:42;;;;;;;15.43;7.55;;;12.80;99.90;;;12.50;96.05;99781.53;4813786;29;20493;-66
2023/10/25 02:01:10;;;;;;;13.75;7.63;;;12.90;99.90;;;12.99;96.22;99882.63;4804774;29;20054;-66
2023/10/25 02:03:39;;;;;;;13.00;7.45;;;12.70;99.90;;;12.90;95.80;99872.28;4805435;29;20050;-66
2023/10/25 02:06:14;;;;;;;14.40;7.43;;;12.60;99.90;;;12.70;96.16;99854.28;4805986;29;20534;-66
2023/10/25 02:08:43;;;;;;;14.98;8.68;;;12.50;99.90;;;12.76;96.83;99874.47;4805921;29;20051;-66
2023/10/25 02:11:15;;;;;;;17.10;8.35;;;12.40;99.90;;;12.74;97.29;99871.00;4805726;29;20066;-66
2023/10/25 02:13:45;;;;;;;13.57;7.72;;;12.40;99.90;;;12.74;97.92;99864.84;4805408;29;20067;-66
2023/10/25 02:16:15;;;;;;;15.07;8.13;;;12.40;99.90;;;12.47;97.96;99818.72;4805489;29;20463;-67
2023/10/25 02:18:44;;;;;;;13.07;7.78;;;12.50;99.90;;;12.81;98.47;99859.31;4804499;29;20549;-67
2023/10/25 02:21:13;;;;;;;13.45;7.55;;;12.60;99.90;;;12.77;98.34;99859.41;4805856;29;20059;-67
2023/10/25 02:23:42;;;;;;;13.13;7.82;;;12.60;99.90;;;12.81;98.10;99851.34;4801297;29;20055;-67
2023/10/25 02:26:11;;;;;;;12.18;7.28;;;12.60;99.90;;;12.75;97.78;99848.88;4801408;29;20043;-67
2023/10/25 02:28:39;;;;;;;14.55;7.68;;;12.50;99.90;;;12.81;98.04;99851.34;4772051;30;20043;-66
2023/10/25 02:31:09;;;;;;;15.60;7.85;;;12.50;99.90;;;12.76;97.82;99847.06;4787668;30;20062;-66
2023/10/25 02:33:39;;;;;;;17.35;7.80;;;12.50;99.90;;;12.74;97.74;99849.75;4787603;30;20051;-67
2023/10/25 02:36:08;;;;;;;17.88;8.00;;;12.50;99.90;;;12.74;97.75;99848.91;4787430;30;20055;-66
2023/10/25 02:38:36;;;;;;;14.55;7.40;;;12.40;99.90;;;12.77;98.07;99844.38;4787373;30;20055;-67
2023/10/25 02:41:04;;;;;;;13.27;7.03;;;12.40;99.90;;;12.68;97.92;99839.31;4787632;30;20055;-67
2023/10/25 02:43:34;;;;;;;13.68;7.50;;;12.40;99.90;;;12.68;98.52;99849.94;4787285;29;20052;-67
2023/10/25 02:46:03;;;;;;;13.13;7.57;;;12.40;99.90;;;12.68;98.47;99844.63;4787520;30;20055;-67
2023/10/25 02:48:33;;;;;;;12.73;8.05;;;12.40;99.90;;;12.67;98.79;99838.47;4787508;30;20055;-66
2023/10/25 02:51:01;;;;;;;15.95;8.48;;;12.40;99.90;;;12.59;98.89;99835.19;4787530;30;20047;-67
2023/10/25 02:53:29;;;;;;;16.27;7.70;;;12.30;99.90;;;12.54;99.07;99831.75;4789866;30;20155;-67
2023/10/25 02:56:01;;;;;;;12.98;8.13;;;12.30;99.90;;;12.47;99.18;99827.56;4791025;29;20051;-67
2023/10/25 02:58:30;;;;;;;13.45;7.78;;;12.30;99.90;;;11.99;99.25;99749.44;4791019;30;20055;-67
2023/10/25 03:00:59;;;;;;;11.38;7.43;;;12.30;99.90;;;12.49;99.46;99838.13;4790842;30;20074;-67
2023/10/25 03:03:29;;;;;;;14.85;8.05;;;12.30;99.90;;;12.41;99.35;99838.34;4804606;29;20054;-65
2023/10/25 03:05:59;;;;;;;16.13;8.23;;;12.30;99.90;;;12.25;99.50;99813.16;4789069;30;20102;-65
2023/10/25 03:08:28;;;;;;;15.88;8.82;;;12.20;99.90;;;12.37;99.39;99833.16;4790249;30;20307;-66
2023/10/25 03:10:57;;;;;;;13.65;8.02;;;12.20;99.90;;;12.24;99.44;99823.81;4790368;29;20055;-66
2023/10/25 03:13:25;;;;;;;15.20;8.25;;;12.10;99.90;;;12.17;99.73;99825.78;4790436;30;20426;-65
2023/10/25 03:15:55;;;;;;;14.70;7.80;;;12.00;99.90;;;12.12;100.00;99822.38;4790390;29;20439;-65
2023/10/25 03:18:23;;;;;;;10.90;7.45;;;11.90;99.90;;;12.12;100.00;99821.50;4790097;30;20100;-65
2023/10/25 03:20:51;;;;;;;14.65;8.00;;;11.90;99.90;;;12.09;100.00;99811.00;4790613;30;20104;-66
2023/10/25 03:23:21;;;;;;;14.68;8.20;;;11.80;99.90;;;12.11;100.00;99806.53;4806589;29;20057;-65
2023/10/25 03:25:50;;;;;;;13.27;8.82;;;11.80;99.90;;;12.15;100.00;99800.22;4826398;29;20054;-66
2023/10/25 03:28:18;;;;;;;16.20;8.68;;;11.90;99.90;;;11.92;100.00;99784.97;4826442;29;20059;-66
2023/10/25 03:30:47;;;;;;;13.77;8.85;;;11.70;99.90;;;11.81;100.00;99800.25;4826384;29;20046;-65
2023/10/25 03:33:15;;;;;;;12.95;7.90;;;11.60;99.90;;;11.75;100.00;99795.13;4826466;29;20094;-65
2023/10/25 03:35:53;;;;;;;14.70;8.38;;;11.50;99.90;;;11.61;100.00;99797.25;4812202;29;20054;-66
2023/10/25 03:38:24;;;;;;;14.75;8.13;;;11.40;99.90;;;11.59;100.00;99789.31;4826121;29;20065;-66
2023/10/25 03:41:02;;;;;;;16.07;8.23;;;11.40;99.90;;;11.49;100.00;99797.56;4826409;29;20146;-66
2023/10/25 03:43:31;;;;;;;12.23;8.10;;;11.30;99.90;;;11.30;100.00;99794.50;4812428;29;20296;-66
2023/10/25 03:46:04;;;;;;;14.48;7.97;;;11.10;99.90;;;11.18;100.00;99789.50;4826249;29;20090;-67
2023/10/25 03:48:33;;;;;;;17.02;9.13;;;11.00;99.90;;;11.05;100.00;99795.13;4826211;29;20059;-66
2023/10/25 03:51:04;;;;;;;16.00;9.68;;;10.80;99.90;;;10.87;100.00;99792.00;4825904;29;20043;-66
2023/10/25 03:53:35;;;;;;;16.00;10.30;;;10.60;99.90;;;10.52;100.00;99749.63;4826455;29;20488;-69
2023/10/25 03:56:05;;;;;;;15.65;9.52;;;10.50;99.90;;;10.91;100.00;99771.66;4826185;29;20054;-66
2023/10/25 03:58:33;;;;;;;16.15;10.20;;;10.60;99.90;;;10.96;100.00;99772.41;4825765;29;20046;-66
2023/10/25 04:01:04;;;;;;;18.90;9.82;;;10.70;99.90;;;11.07;100.00;99772.16;4826000;29;20057;-66
2023/10/25 04:03:37;;;;;;;20.98;10.68;;;10.80;99.90;;;11.24;100.00;99769.97;4825690;29;20050;-66
2023/10/25 04:06:07;;;;;;;18.20;10.90;;;11.00;99.90;;;11.37;100.00;99771.38;4825390;29;20042;-66
2023/10/25 04:08:37;;;;;;;16.90;11.05;;;11.10;99.90;;;11.41;100.00;99773.06;4809130;29;20412;-66
2023/10/25 04:11:07;;;;;;;16.60;10.55;;;11.20;99.90;;;11.44;100.00;99771.19;4816777;29;20496;-66
2023/10/25 04:13:35;;;;;;;17.40;11.33;;;11.20;99.90;;;11.46;100.00;99760.56;4825274;29;20461;-66
2023/10/25 04:16:06;;;;;;;15.52;11.00;;;11.20;99.90;;;11.39;100.00;99758.97;4825234;29;20575;-66
2023/10/25 04:18:34;;;;;;;;;;;11.10;99.90;;;11.27;100.00;99760.16;4826180;29;20050;-66
2023/10/25 04:21:03;;;;;;;21.83;11.30;;;11.10;99.90;;;11.12;100.00;99755.25;4809142;29;19967;-66
2023/10/25 04:23:32;;;;;;;17.48;11.65;;;10.90;99.90;;;10.96;100.00;99763.59;4825110;29;20149;-66
2023/10/25 04:26:09;;;;;;;17.38;10.82;;;10.90;99.90;;;11.04;100.00;99765.16;4825371;29;20055;-66
2023/10/25 04:28:41;;;;;;;24.33;12.55;;;10.80;99.90;;;11.18;100.00;99744.53;4825175;29;20050;-66
2023/10/25 04:31:10;;;;;;;20.40;11.65;;;10.90;99.90;;;11.23;100.00;99750.56;4825528;29;20059;-66
2023/10/25 04:33:40;;;;;;;22.08;13.25;;;10.90;99.90;;;11.06;100.00;99747.47;4825153;29;20081;-66
2023/10/25 04:36:09;;;;;;;21.52;12.40;;;10.80;99.90;;;11.01;100.00;99732.59;4825279;29;20130;-66
2023/10/25 04:38:37;;;;;;;19.02;12.10;;;10.80;99.90;;;11.15;100.00;99735.78;4825114;29;20080;-65
2023/10/25 04:41:07;;;;;;;18.30;11.40;;;10.90;99.90;;;11.30;100.00;99727.47;4825694;29;20054;-66
2023/10/25 04:43:35;;;;;;;19.07;12.43;;;11.00;99.90;;;11.49;100.00;99718.13;4825399;29;20473;-66
2023/10/25 04:46:04;;;;;;;16.42;12.18;;;11.20;99.90;;;11.43;100.00;99727.09;4825096;29;20113;-66
2023/10/25 04:48:33;;;;;;;20.65;12.23;;;11.20;99.90;;;11.38;100.00;99720.19;4825263;29;20127;-66
2023/10/25 04:51:04;;;;;;;16.05;12.32;;;11.10;99.90;;;11.35;100.00;99721.13;4824994;29;20053;-65
2023/10/25 04:53:32;;;;;;;19.75;12.00;;;11.10;99.90;;;11.14;100.00;99716.41;4825249;29;20378;-66
2023/10/25 04:56:01;;;;;;;24.00;12.65;;;10.90;99.90;;;11.07;100.00;99719.22;4824891;29;20046;-66
2023/10/25 04:58:31;;;;;;;23.25;12.20;;;10.80;99.90;;;11.05;100.00;99711.34;4825358;29;20050;-66
2023/10/25 05:01:00;;;;;;;30.13;13.23;;;10.80;99.90;;;11.09;100.00;99702.38;4825076;29;20129;-66
2023/10/25 05:03:28;;;;;;;21.35;12.35;;;10.80;99.90;;;11.12;100.00;99704.09;4808590;29;20489;-66
2023/10/25 05:05:56;;;;;;;23.08;11.75;;;10.80;99.90;;;11.19;100.00;99698.59;4824825;29;20061;-65
2023/10/25 05:08:26;;;;;;;20.77;12.50;;;10.90;99.90;;;11.09;100.00;99702.38;4824949;29;20042;-63
2023/10/25 05:10:56;;;;;;;16.88;11.95;;;10.80;99.90;;;11.04;100.00;99698.13;4824482;29;20072;-64
2023/10/25 05:13:25;;;;;;;17.77;12.10;;;10.80;99.90;;;10.99;100.00;99695.63;4824467;29;20084;-62
2023/10/25 05:15:55;;;;;;;21.98;12.23;;;10.70;99.90;;;10.97;100.00;99685.97;4823967;29;20061;-62
2023/10/25 05:18:24;;;;;;;;;;;10.70;99.90;;;10.92;100.00;99687.88;4824835;29;20053;-62
2023/10/25 05:20:59;;;;;;;19.05;12.15;;;10.70;99.90;;;10.92;100.00;99688.72;4824286;29;20023;-62
2023/10/25 05:23:32;;;;;;;19.70;11.63;;;10.70;99.90;;;10.97;100.00;99686.84;4808068;29;20070;-62
2023/10/25 05:26:02;;;;;;;20.58;11.73;;;10.70;99.90;;;11.06;100.00;99696.31;4825055;29;20054;-63
2023/10/25 05:28:32;;;;;;;19.88;11.57;;;10.80;99.90;;;11.21;100.00;99685.31;4824647;29;20102;-63
2023/10/25 05:31:05;;;;;;;17.83;12.02;;;10.90;99.90;;;11.20;100.00;99687.13;4824575;29;20058;-63
2023/10/25 05:33:34;;;;;;;23.55;12.57;;;10.90;99.90;;;11.03;100.00;99678.75;4824419;29;20183;-63
2023/10/25 05:36:03;;;;;;;19.75;11.77;;;10.80;99.90;;;11.02;100.00;99682.28;4824050;29;20117;-62
2023/10/25 05:38:33;;;;;;;17.45;10.90;;;10.80;99.90;;;11.00;100.00;99684.09;4824366;29;20050;-63
2023/10/25 05:41:02;;;;;;;21.80;10.85;;;10.70;99.90;;;11.06;100.00;99677.78;4824281;29;20158;-62
2023/10/25 05:43:38;;;;;;;19.15;10.65;;;10.80;99.90;;;11.11;100.00;99667.97;4824211;29;20456;-62
2023/10/25 05:46:07;;;;;;;17.98;11.05;;;10.90;99.90;;;11.24;100.00;99675.56;4810168;29;20462;-62
2023/10/25 05:48:37;;;;;;;12.32;10.00;;;10.90;99.90;;;11.25;100.00;99674.63;4824162;29;20060;-62
2023/10/25 05:51:06;;;;;;;18.10;10.43;;;11.00;99.90;;;11.29;100.00;99662.19;4824348;29;20095;-62
2023/10/25 05:53:35;;;;;;;15.85;9.75;;;11.00;99.90;;;11.28;100.00;99658.69;4824309;29;20109;-62
2023/10/25 05:56:05;;;;;;;17.65;9.98;;;11.00;99.90;;;11.48;100.00;99650.19;4824590;29;20050;-62
2023/10/25 05:58:34;;;;;;;15.13;9.40;;;11.10;99.90;;;11.51;100.00;99637.75;4824378;29;20054;-62
2023/10/25 06:01:09;;;;;;;18.73;10.05;;;11.30;99.90;;;11.59;100.00;99646.31;4823960;29;20046;-62
2023/10/25 06:03:42;;;;;;;16.70;9.30;;;11.30;99.90;;;11.63;100.00;99645.31;4824533;29;20085;-63
2023/10/25 06:06:13;;;;;;;15.82;8.98;;;11.40;99.90;;;11.68;100.00;99635.50;4824198;29;20506;-62
2023/10/25 06:08:42;;;;;;;15.52;9.50;;;11.40;99.90;;;11.65;100.00;99640.88;4823772;29;20074;-66
2023/10/25 06:11:12;;;;;;;16.70;9.15;;;11.50;99.90;;;11.53;100.00;99637.69;4824011;29;20137;-62
2023/10/25 06:13:41;;;;;;;17.15;10.18;;;11.40;99.90;;;11.58;100.00;99634.00;4823535;29;20404;-62
2023/10/25 06:16:11;;;;;;;17.63;9.40;;;11.40;99.90;;;11.53;100.00;99630.63;4823517;29;20054;-62
2023/10/25 06:18:40;;;;;;;13.95;9.27;;;11.30;99.90;;;11.61;100.00;99627.75;4809296;29;20065;-62
2023/10/25 06:21:09;;;;;;;14.35;9.05;;;11.40;99.90;;;11.84;100.00;99625.34;4823730;29;20095;-62
2023/10/25 06:23:38;;;;;;;13.65;9.07;;;11.60;99.90;;;11.93;100.00;99629.47;4823823;29;20508;-62
2023/10/25 06:26:06;;;;;;;14.32;9.73;;;11.70;99.90;;;11.73;100.00;99625.66;4823217;29;20062;-62
2023/10/25 06:28:35;;;;;;;17.27;9.45;;;11.60;99.90;;;11.73;100.00;99627.41;4826646;29;20497;-63
2023/10/25 06:31:05;;;;;;;15.82;9.40;;;11.50;99.90;;;11.83;100.00;99620.94;4826900;29;20054;-63
2023/10/25 06:33:34;;;;;;;14.00;9.90;;;11.60;99.90;;;11.75;100.00;99620.28;4826911;29;20485;-63
2023/10/25 06:36:04;;;;;;;16.80;10.15;;;11.50;99.90;;;11.67;100.00;99625.81;4827142;29;20053;-63
2023/10/25 06:38:33;;;;;;;14.30;9.63;;;11.50;99.90;;;11.73;100.00;99622.13;4827122;29;20050;-63
2023/10/25 06:41:03;;;;;;;16.35;9.30;;;11.50;99.90;;;11.67;100.00;99620.53;4827044;29;20061;-63
2023/10/25 06:43:34;;;;;;;16.03;9.43;;;11.50;99.90;;;11.69;100.00;99612.56;4827541;29;20058;-63
2023/10/25 06:46:03;;;;;;;15.15;9.27;;;11.50;99.90;;;11.89;100.00;99602.22;4827018;29;20754;-63
2023/10/25 06:48:36;;;;;;;17.80;9.68;;;11.60;99.90;;;12.03;100.00;99607.09;4827526;29;20125;-63
2023/10/25 06:51:06;;;;;;;15.90;9.38;;;11.80;99.90;;;12.03;100.00;99604.44;4811686;29;20050;-63
2023/10/25 06:53:37;;;;;;;15.82;9.27;;;11.80;99.90;;;11.89;100.00;99596.91;4827151;29;20427;-63
2023/10/25 06:56:07;;;;;;;18.38;9.23;;;11.80;99.90;;;11.82;100.00;99597.16;4827128;29;20089;-63
2023/10/25 06:58:37;;;;;;;13.38;8.60;;;11.60;99.90;;;11.86;100.00;99594.38;4827364;29;20050;-63
2023/10/25 07:01:07;;;;;;;16.27;9.45;;;11.70;99.90;;;11.87;100.00;99592.56;4826758;29;20055;-63
2023/10/25 07:03:42;;;;;;;15.65;8.48;;;11.70;99.90;;;11.82;100.00;99586.56;4826616;29;20078;-61
2023/10/25 07:06:12;;;;;;;14.07;8.43;;;11.70;99.90;;;11.73;100.00;99585.91;4826513;29;20048;-62
2023/10/25 07:08:42;;;;;;;14.38;8.10;;;11.60;99.90;;;11.57;100.00;99589.91;4826669;29;20050;-64
2023/10/25 07:11:10;;;;;;;13.55;8.52;;;11.40;99.90;;;11.32;100.00;99593.28;4826372;29;20053;-64
2023/10/25 07:13:38;;;;;;;15.75;9.43;;;11.10;99.90;;;11.25;100.00;99592.59;4826433;29;20133;-64
2023/10/25 07:16:08;;;;;;;19.15;9.02;;;11.00;99.90;;;11.18;100.00;99591.03;4826274;29;20125;-63
2023/10/25 07:18:38;;;;;;;12.18;8.38;;;11.00;99.90;;;11.07;100.00;99587.78;4826417;29;20497;-65
2023/10/25 07:21:08;;;;;;;16.27;9.02;;;10.90;99.90;;;10.96;100.00;99589.84;4826441;29;20042;-64
2023/10/25 07:23:36;;;;;;;16.02;9.00;;;10.80;99.90;;;11.08;100.00;99586.88;4826392;29;20054;-66
2023/10/25 07:26:06;;;;;;;13.55;8.77;;;10.80;99.90;;;11.09;100.00;99591.25;4826095;29;20101;-65
2023/10/25 07:28:34;;;;;;;14.93;8.83;;;10.80;99.90;;;10.98;100.00;99581.88;4826107;29;20133;-63
2023/10/25 07:31:03;;;;;;;17.55;9.60;;;10.80;99.90;;;11.03;100.00;99580.00;4826080;29;20054;-63
2023/10/25 07:33:31;;;;;;;15.25;8.32;;;10.80;99.90;;;11.22;100.00;99582.09;4826073;29;20058;-61
2023/10/25 07:36:01;;;;;;;12.50;8.65;;;10.90;99.90;;;11.27;100.00;99585.47;4825589;29;20086;-64
2023/10/25 07:38:31;;;;;;;15.90;8.55;;;11.00;99.90;;;11.24;100.00;99579.41;4825344;29;20110;-61
2023/10/25 07:40:59;;;;;;;16.10;8.80;;;11.00;99.90;;;11.43;100.00;99572.66;4826398;29;20804;-63
2023/10/25 07:43:28;;;;;;;22.90;9.27;;;11.10;99.90;;;11.41;100.00;99575.38;4820805;29;20055;-61
2023/10/25 07:45:56;;;;;;;14.38;8.77;;;11.20;99.90;;;11.36;100.00;99564.03;4825468;29;20095;-61
2023/10/25 07:48:24;;;;;;;17.42;8.40;;;11.20;99.90;;;11.28;100.00;99568.69;4825828;29;20469;-62
2023/10/25 07:50:53;;;;;;;16.75;8.82;;;11.10;99.90;;;11.41;100.00;99566.56;4825731;29;20050;-62
2023/10/25 07:53:23;;;;;;;12.13;8.20;;;11.10;99.90;;;11.47;100.00;99564.59;4809822;29;20481;-62
2023/10/25 07:55:51;;;;;;;12.10;8.20;;;11.20;99.90;;;11.46;100.00;99562.84;4825781;29;20106;-62
2023/10/25 07:58:23;;;;;;;12.82;8.15;;;11.20;99.90;;;11.33;100.00;99558.84;4811554;29;20054;-62
2023/10/25 08:00:55;;;;;;;12.85;8.30;;;11.20;99.90;;;11.44;100.00;99561.19;4825633;29;20055;-63
2023/10/25 08:03:26;;;;;;;14.13;8.25;;;11.20;99.90;;;11.46;100.00;99554.03;4825831;29;20130;-63
2023/10/25 08:05:54;;;;;;;10.35;8.00;;;11.20;99.90;;;11.44;100.00;99551.44;4809597;29;20046;-63
2023/10/25 08:08:24;;;;;;;11.73;7.90;;;11.20;99.90;;;11.51;100.00;99542.41;4825999;29;20042;-61
2023/10/25 08:11:01;;;;;;;14.05;8.20;;;11.30;99.90;;;11.38;100.00;99550.78;4825920;29;20099;-64
2023/10/25 08:13:30;;;;;;;14.38;8.73;;;11.20;99.90;;;11.48;100.00;99553.09;4809621;29;20054;-64
2023/10/25 08:15:59;;;;;;;13.38;7.90;;;11.30;99.90;;;10.61;100.00;99400.41;4825520;29;20050;-65
2023/10/25 08:18:28;;;;;;;13.13;8.15;;;11.30;99.90;;;11.48;100.00;99547.78;4825897;29;20058;-65
2023/10/25 08:20:57;;;;;;;16.10;8.18;;;11.30;99.90;;;11.47;100.00;99540.78;4825314;29;20076;-64
2023/10/25 08:23:29;;;;;;;12.93;8.40;;;11.30;99.90;;;11.57;100.00;99538.72;4825718;29;20093;-65
2023/10/25 08:26:00;;;;;;;12.82;8.25;;;11.30;99.90;;;11.53;100.00;99545.03;4825365;29;20050;-65
2023/10/25 08:28:29;;;;;;;15.48;8.48;;;11.30;99.90;;;11.51;100.00;99552.13;4825339;29;20155;-67
2023/10/25 08:30:57;;;;;;;13.00;8.52;;;11.30;99.90;;;11.62;100.00;99544.75;4825543;29;20405;-62
2023/10/25 08:33:26;;;;;;;16.80;7.72;;;11.30;99.90;;;11.68;100.00;99547.25;4825179;29;20061;-62
2023/10/25 08:36:02;;;;;;;16.33;8.18;;;11.40;99.90;;;11.69;100.00;99541.03;4825111;29;20054;-64
2023/10/25 08:38:32;;;;;;;16.02;7.45;;;11.40;99.90;;;11.61;100.00;99537.72;4825155;29;20058;-64
2023/10/25 08:41:04;;;;;;;10.90;7.90;;;11.40;99.90;;;11.53;100.00;99545.91;4825992;29;20054;-63
2023/10/25 08:43:34;;;;;;;12.90;7.75;;;11.30;99.90;;;11.36;100.00;99507.59;4825427;29;20183;-63
2023/10/25 08:46:03;;;;;;;15.40;8.25;;;11.30;99.90;;;11.73;100.00;99527.63;4825013;29;20094;-62
2023/10/25 08:48:33;;;;;;;9.98;7.70;;;11.40;99.90;;;11.70;100.00;99535.69;4825051;29;20141;-64
2023/10/25 08:51:03;;;;;;;11.33;7.83;;;11.50;99.90;;;11.62;100.00;99540.31;4824231;29;20065;-62
2023/10/25 08:53:34;;;;;;;9.13;7.50;;;11.40;99.90;;;11.55;100.00;99533.47;4825185;29;20054;-62
2023/10/25 08:56:04;;;;;;;12.35;7.90;;;11.30;99.90;;;11.78;100.00;99525.75;4825155;29;20058;-63
2023/10/25 08:58:32;;;;;;;12.13;7.95;;;11.40;99.90;;;11.89;100.00;99521.84;4824805;29;20072;-62
2023/10/25 09:01:01;;;;;;;14.27;7.60;;;11.60;99.90;;;11.88;100.00;99521.00;4825200;29;20054;-64
2023/10/25 09:03:42;;;;;;;12.65;7.57;;;11.70;99.90;;;12.38;100.00;99516.72;4824501;29;20405;-62
2023/10/25 09:06:12;;;;;;;16.00;8.13;;;12.00;99.90;;;12.64;100.00;99509.59;4824718;29;20060;-62
2023/10/25 09:08:48;;;;;;;14.25;7.90;;;12.30;99.90;;;12.80;100.00;99509.94;4808126;29;20059;-64
2023/10/25 09:11:16;;;;;;;13.13;8.65;;;12.50;99.90;;;12.93;100.00;99508.56;4810757;29;20054;-64
2023/10/25 09:13:44;;;;;;;13.38;9.20;;;12.70;99.90;;;13.08;100.00;99501.91;4824534;29;20080;-63
2023/10/25 09:16:16;;;;;;;15.38;8.85;;;12.80;99.90;;;13.15;100.00;99504.28;4824938;29;20054;-63
2023/10/25 09:18:45;;;;;;;15.52;9.27;;;12.90;99.90;;;13.17;100.00;99502.44;4824487;29;20489;-63
2023/10/25 09:21:13;;;;;;;26.15;13.40;;;13.00;99.90;;;13.26;100.00;99493.22;4824940;29;20051;-60
2023/10/25 09:23:55;;;;;;;22.10;12.13;;;13.10;99.90;;;13.31;100.00;99492.16;4814913;29;20146;-61
2023/10/25 09:26:36;;;;;;;18.10;9.60;;;13.10;99.90;;;13.37;100.00;99509.66;4824471;29;20516;-61
2023/10/25 09:29:08;;;;;;;13.43;9.20;;;13.10;99.90;;;13.31;100.00;99486.84;4808219;29;20569;-60
2023/10/25 09:31:43;;;;;;;15.27;9.65;;;13.10;99.90;;;13.36;100.00;99487.53;4808146;29;20103;-60
2023/10/25 09:34:12;;;;;;;16.90;9.77;;;13.10;99.90;;;13.38;100.00;99480.38;4824109;29;20054;-61
2023/10/25 09:36:40;;;;;;;15.25;9.00;;;13.20;99.90;;;13.42;100.00;99473.16;4824312;29;20117;-60
2023/10/25 09:39:10;;;;;;;12.35;8.93;;;13.20;99.90;;;13.38;100.00;99467.09;4824424;29;20136;-63
2023/10/25 09:41:43;;;;;;;13.77;8.90;;;13.20;99.90;;;13.39;100.00;99474.13;4824365;29;20054;-63
2023/10/25 09:44:19;;;;;;;12.63;8.57;;;13.20;99.90;;;13.37;100.00;99462.72;4824357;29;20489;-63
2023/10/25 09:46:48;;;;;;;16.00;9.60;;;13.20;99.90;;;13.40;100.00;99454.63;4824195;29;20509;-63
2023/10/25 09:49:19;;;;;;;13.20;8.68;;;13.20;99.90;;;13.44;100.00;99458.91;4824355;29;20039;-63
2023/10/25 09:52:06;;;;;;;13.73;8.75;;;13.30;99.90;;;13.42;100.00;99450.13;4807839;29;20058;-63
2023/10/25 09:54:37;;;;;;;15.55;8.75;;;13.20;99.90;;;13.34;100.00;99427.44;4824483;29;20054;-64
2023/10/25 09:57:07;;;;;;;12.98;8.50;;;13.30;99.90;;;13.46;100.00;99450.88;4824035;29;20061;-62
2023/10/25 09:59:38;;;;;;;14.45;7.97;;;13.20;99.90;;;13.43;100.00;99449.19;4807872;29;20096;-63
2023/10/25 10:02:08;;;;;;;;;;;13.20;99.90;;;13.44;100.00;99428.81;4824114;29;20046;-62
2023/10/25 10:04:51;;;;;;;9.68;7.40;;;13.30;99.90;;;13.46;100.00;99426.97;4824064;29;19925;-63
2023/10/25 10:07:37;;;;;;;11.52;7.65;;;13.30;99.90;;;13.47;100.00;99421.56;4823877;29;20074;-63
2023/10/25 10:10:19;;;;;;;13.73;8.63;;;13.30;99.90;;;13.41;100.00;99416.50;4824027;29;20062;-63
2023/10/25 10:12:48;;;;;;;11.25;7.13;;;13.30;99.90;;;13.44;100.00;99416.41;4811059;29;20051;-64
2023/10/25 10:15:19;;;;;;;11.90;7.45;;;13.20;99.90;;;13.46;100.00;99411.91;4807574;29;20126;-64
2023/10/25 10:17:47;;;;;;;11.55;6.93;;;13.20;99.90;;;13.48;100.00;99409.19;4824172;29;20058;-62
2023/10/25 10:20:29;;;;;;;11.68;7.75;;;13.30;99.90;;;13.51;100.00;99412.56;4810148;29;20447;-64